Time;durP1;ratioP1;P1;durP2;ratioP2;P2;SDS_P1;SDS_P2;PMS_P1;PMS_P2;Temp;Humidity;BMP_temperature;BMP_pressure;BME280_temperature;BME280_humidity;BME280_pressure;Samples;Min_cycle;Max_cycle;Signal;HPM_P1;HPM_P2
2021/07/09 00:02:42;;;;;;;;;;;26.90;99.90;;;;;;1779794;80;20186;-79
2021/07/09 00:05:11;;;;;;;;;;;26.90;99.90;;;;;;1783515;80;20213;-79
2021/07/09 00:07:41;;;;;;;;;;;26.90;99.90;;;;;;1778611;80;20534;-79
2021/07/09 00:10:11;;;;;;;;;;;26.90;99.90;;;;;;1786010;80;20194;-79
2021/07/09 00:12:41;;;;;;;;;;;26.90;99.90;;;;;;1777166;80;20244;-78
2021/07/09 00:15:14;;;;;;;;;;;26.90;99.90;;;;;;1780330;80;20556;-78
2021/07/09 00:17:43;;;;;;;;;;;26.90;99.90;;;;;;1780897;80;20272;-79
2021/07/09 00:20:13;;;;;;;;;;;26.90;99.90;;;;;;1777548;80;20130;-78
2021/07/09 00:22:43;;;;;;;;;;;26.90;99.90;;;;;;1779812;79;20249;-79
2021/07/09 00:25:13;;;;;;;;;;;26.90;99.90;;;;;;1784482;79;20217;-78
2021/07/09 00:27:43;;;;;;;;;;;27.00;99.90;;;;;;1783322;79;20195;-79
2021/07/09 00:30:14;;;;;;;;;;;26.90;99.90;;;;;;1763783;81;20205;-78
2021/07/09 00:32:44;;;;;;;;;;;26.90;99.90;;;;;;1767771;80;20257;-79
2021/07/09 00:35:14;;;;;;;;;;;27.00;99.90;;;;;;1781791;80;20505;-79
2021/07/09 00:37:44;;;;;;;;;;;27.00;99.90;;;;;;1784083;79;20162;-79
2021/07/09 00:40:14;;;;;;;;;;;27.00;99.90;;;;;;1777720;80;20182;-80
2021/07/09 00:42:44;;;;;;;;;;;27.00;99.90;;;;;;1781448;80;20228;-79
2021/07/09 00:45:15;;;;;;;;;;;27.00;99.90;;;;;;1780645;79;20275;-79
2021/07/09 00:47:46;;;;;;;;;;;27.00;99.90;;;;;;1774899;80;20487;-79
2021/07/09 00:50:17;;;;;;;;;;;26.90;99.90;;;;;;1784331;80;20178;-79
2021/07/09 00:52:46;;;;;;;;;;;26.90;99.90;;;;;;1769348;81;20284;-78
2021/07/09 00:55:16;;;;;;;;;;;26.90;99.90;;;;;;1774661;80;20176;-80
2021/07/09 00:57:47;;;;;;;;;;;26.80;99.90;;;;;;1780625;79;20169;-78
2021/07/09 01:00:18;;;;;;;;;;;26.70;99.90;;;;;;1783028;80;20414;-77
2021/07/09 01:02:48;;;;;;;;;;;26.70;99.90;;;;;;1779647;79;20209;-77
2021/07/09 01:05:18;;;;;;;;;;;26.70;99.90;;;;;;1777134;80;20201;-78
2021/07/09 01:07:48;;;;;;;;;;;26.60;99.90;;;;;;1784446;80;20176;-79
2021/07/09 01:10:19;;;;;;;;;;;26.70;99.90;;;;;;1782198;80;20315;-78
2021/07/09 01:12:49;;;;;;;;;;;26.70;99.90;;;;;;1783738;80;20444;-78
2021/07/09 01:15:19;;;;;;;;;;;26.70;99.90;;;;;;1772163;80;20244;-78
2021/07/09 01:17:50;;;;;;;;;;;26.80;99.90;;;;;;1788077;78;20163;-77
2021/07/09 01:20:20;;;;;;;;;;;26.90;99.90;;;;;;1791388;78;20673;-78
2021/07/09 01:22:50;;;;;;;;;;;26.90;99.90;;;;;;1783196;79;20228;-78
2021/07/09 01:25:21;;;;;;;;;;;27.00;99.90;;;;;;1790316;80;20293;-79
2021/07/09 01:27:52;;;;;;;;;;;27.00;99.90;;;;;;1803934;78;20290;-78
2021/07/09 01:30:22;;;;;;;;;;;27.10;99.90;;;;;;1794210;78;20562;-79
2021/07/09 01:32:52;;;;;;;;;;;27.10;99.90;;;;;;1790482;79;20264;-78
2021/07/09 01:35:23;;;;;;;;;;;27.20;99.90;;;;;;1787812;80;20433;-79
2021/07/09 01:37:54;;;;;;;;;;;27.20;99.90;;;;;;1786479;80;20513;-80
2021/07/09 01:40:24;;;;;;;;;;;27.30;99.90;;;;;;1789769;79;20252;-79
2021/07/09 01:42:55;;;;;;;;;;;27.30;99.90;;;;;;1793224;80;20139;-79
2021/07/09 01:45:25;;;;;;;;;;;27.30;99.90;;;;;;1793185;80;20223;-79
2021/07/09 01:47:55;;;;;;;;;;;27.30;99.90;;;;;;1788306;80;20144;-80
2021/07/09 01:50:25;;;;;;;;;;;27.30;99.90;;;;;;1777956;80;20257;-79
2021/07/09 01:52:55;;;;;;;;;;;27.40;99.90;;;;;;1791773;78;20269;-79
2021/07/09 01:55:25;;;;;;;;;;;27.40;99.90;;;;;;1786238;80;20617;-79
2021/07/09 01:57:55;;;;;;;;;;;27.40;99.90;;;;;;1792381;78;20627;-79
2021/07/09 02:00:26;;;;;;;;;;;27.50;99.90;;;;;;1788696;79;20257;-79
2021/07/09 02:02:56;;;;;;;;;;;27.60;99.90;;;;;;1777820;79;20182;-79
2021/07/09 02:05:26;;;;;;;;;;;27.70;99.90;;;;;;1788595;80;20649;-79
2021/07/09 02:07:56;;;;;;;;;;;27.80;99.90;;;;;;1792404;80;20201;-79
2021/07/09 02:10:27;;;;;;;;;;;27.90;99.90;;;;;;1784920;79;20209;-79
2021/07/09 02:12:58;;;;;;;;;;;28.00;99.90;;;;;;1789443;80;20205;-78
2021/07/09 02:15:30;;;;;;;;;;;28.10;99.90;;;;;;1790454;78;20257;-79
2021/07/09 02:18:00;;;;;;;;;;;28.20;99.90;;;;;;1785172;80;20225;-79
2021/07/09 02:20:30;;;;;;;;;;;28.40;99.90;;;;;;1791139;80;20556;-78
2021/07/09 02:23:01;;;;;;;;;;;28.50;99.90;;;;;;1785355;80;20221;-80
2021/07/09 02:25:31;;;;;;;;;;;28.50;99.90;;;;;;1786782;80;20213;-78
2021/07/09 02:28:00;;;;;;;;;;;28.50;99.90;;;;;;1782273;80;20182;-78
2021/07/09 02:30:31;;;;;;;;;;;28.70;99.90;;;;;;1781067;80;20166;-79
2021/07/09 02:33:01;;;;;;;;;;;28.80;99.90;;;;;;1787679;80;20208;-79
2021/07/09 02:35:32;;;;;;;;;;;28.90;99.90;;;;;;1784806;80;20139;-79
2021/07/09 02:38:03;;;;;;;;;;;28.90;99.90;;;;;;1766539;80;20319;-77
2021/07/09 02:40:33;;;;;;;;;;;28.90;99.90;;;;;;1781268;80;20148;-78
2021/07/09 02:43:06;;;;;;;;;;;28.80;99.90;;;;;;1784274;80;20696;-77
2021/07/09 02:45:36;;;;;;;;;;;28.80;99.90;;;;;;1788089;79;20205;-78
2021/07/09 02:48:07;;;;;;;;;;;28.70;99.90;;;;;;1784446;78;20203;-79
2021/07/09 02:50:38;;;;;;;;;;;28.70;99.90;;;;;;1785325;79;20202;-79
2021/07/09 02:53:08;;;;;;;;;;;28.70;99.70;;;;;;1786414;79;20204;-78
2021/07/09 02:55:38;;;;;;;;;;;28.60;99.90;;;;;;1804546;78;20270;-78
2021/07/09 02:58:07;;;;;;;;;;;28.60;99.70;;;;;;1786418;79;20206;-79
2021/07/09 03:00:38;;;;;;;;;;;28.60;99.30;;;;;;1786390;79;20489;-79
2021/07/09 03:03:12;;;;;;;;;;;28.70;99.90;;;;;;1787502;79;20319;-79
2021/07/09 03:05:42;;;;;;;;;;;28.80;99.80;;;;;;1785842;79;20245;-79
2021/07/09 03:08:12;;;;;;;;;;;28.90;98.90;;;;;;1786210;79;20567;-79
2021/07/09 03:10:41;;;;;;;;;;;29.00;98.30;;;;;;1787527;80;20540;-79
2021/07/09 03:13:11;;;;;;;;;;;29.10;97.80;;;;;;1788754;79;20182;-80
2021/07/09 03:15:41;;;;;;;;;;;29.20;97.60;;;;;;1789495;79;20218;-80
2021/07/09 03:18:11;;;;;;;;;;;29.30;97.40;;;;;;1787672;79;20293;-80
2021/07/09 03:20:40;;;;;;;;;;;29.40;97.90;;;;;;1789609;79;20210;-80
2021/07/09 03:23:12;;;;;;;;;;;29.60;96.80;;;;;;1788004;79;20202;-79
2021/07/09 03:25:44;;;;;;;;;;;29.80;96.90;;;;;;1786381;79;20210;-80
2021/07/09 03:28:15;;;;;;;;;;;29.90;96.20;;;;;;1786489;79;20257;-78
2021/07/09 03:30:45;;;;;;;;;;;30.00;96.30;;;;;;1792566;80;20141;-79
2021/07/09 03:33:14;;;;;;;;;;;30.20;96.00;;;;;;1796516;78;20190;-78
2021/07/09 03:35:44;;;;;;;;;;;30.30;95.60;;;;;;1781135;79;20194;-79
2021/07/09 03:38:14;;;;;;;;;;;30.40;95.30;;;;;;1785475;80;20202;-78
2021/07/09 03:40:43;;;;;;;;;;;30.40;94.90;;;;;;1784329;80;20252;-78
2021/07/09 03:43:13;;;;;;;;;;;30.40;94.80;;;;;;1784326;79;20321;-78
2021/07/09 03:45:43;;;;;;;;;;;30.40;95.00;;;;;;1784884;79;20277;-78
2021/07/09 03:48:12;;;;;;;;;;;30.30;94.60;;;;;;1783652;80;20229;-78
2021/07/09 03:50:42;;;;;;;;;;;30.30;94.10;;;;;;1780265;80;20458;-78
2021/07/09 03:53:12;;;;;;;;;;;30.20;93.70;;;;;;1786044;80;20277;-79
2021/07/09 03:55:42;;;;;;;;;;;30.30;93.40;;;;;;1780878;80;20263;-79
2021/07/09 03:58:12;;;;;;;;;;;30.30;93.80;;;;;;1780600;80;20178;-80
2021/07/09 04:00:42;;;;;;;;;;;30.30;93.80;;;;;;1774761;80;20139;-81
2021/07/09 04:03:12;;;;;;;;;;;30.40;94.20;;;;;;1777263;80;20537;-81
2021/07/09 04:05:42;;;;;;;;;;;30.50;93.40;;;;;;1785732;80;20513;-81
2021/07/09 04:08:12;;;;;;;;;;;30.60;92.90;;;;;;1779351;80;20172;-80
2021/07/09 04:10:41;;;;;;;;;;;30.70;93.10;;;;;;1779494;80;20196;-79
2021/07/09 04:13:12;;;;;;;;;;;30.70;92.80;;;;;;1771429;80;20249;-79
2021/07/09 04:15:42;;;;;;;;;;;30.80;92.60;;;;;;1782163;79;20233;-79
2021/07/09 04:18:11;;;;;;;;;;;30.70;92.50;;;;;;1780979;80;20216;-79
2021/07/09 04:20:41;;;;;;;;;;;30.70;93.00;;;;;;1782047;80;20218;-78
2021/07/09 04:23:14;;;;;;;;;;;30.60;92.50;;;;;;1784114;80;20168;-79
2021/07/09 04:25:43;;;;;;;;;;;30.50;93.00;;;;;;1781423;80;20201;-79
2021/07/09 04:28:13;;;;;;;;;;;30.40;93.10;;;;;;1783092;80;20289;-80
2021/07/09 04:30:46;;;;;;;;;;;30.30;93.60;;;;;;1781370;80;20199;-79
2021/07/09 04:33:15;;;;;;;;;;;30.20;94.30;;;;;;1778856;80;20511;-79
2021/07/09 04:35:45;;;;;;;;;;;30.00;94.30;;;;;;1783495;80;20182;-79
2021/07/09 04:38:15;;;;;;;;;;;29.80;95.10;;;;;;1782069;80;20433;-80
2021/07/09 04:40:45;;;;;;;;;;;29.50;95.70;;;;;;1780884;80;20433;-79
2021/07/09 04:43:17;;;;;;;;;;;29.20;96.60;;;;;;1776830;80;20252;-79
2021/07/09 04:45:46;;;;;;;;;;;29.00;97.40;;;;;;1779834;80;20242;-80
2021/07/09 04:48:16;;;;;;;;;;;28.80;98.20;;;;;;1775488;79;20225;-80
2021/07/09 04:50:46;;;;;;;;;;;28.60;98.40;;;;;;1801333;79;20136;-79
2021/07/09 04:53:15;;;;;;;;;;;28.50;98.80;;;;;;1799635;79;20185;-80
2021/07/09 04:55:46;;;;;;;;;;;28.40;99.50;;;;;;1801661;79;20181;-80
2021/07/09 04:58:15;;;;;;;;;;;28.30;99.00;;;;;;1801705;79;20181;-80
2021/07/09 05:00:45;;;;;;;;;;;28.20;99.50;;;;;;1803906;79;20211;-80
2021/07/09 05:03:21;;;;;;;;;;;28.20;99.50;;;;;;1752642;82;20168;-79
2021/07/09 05:05:52;;;;;;;;;;;28.20;99.90;;;;;;1776396;80;20242;-79
2021/07/09 05:08:22;;;;;;;;;;;28.10;99.90;;;;;;1749686;82;20244;-80
2021/07/09 05:10:51;;;;;;;;;;;28.10;99.90;;;;;;1770546;80;20136;-80
2021/07/09 05:13:21;;;;;;;;;;;28.10;99.90;;;;;;1773695;80;20199;-79
2021/07/09 05:15:52;;;;;;;;;;;28.30;99.90;;;;;;1771515;80;20195;-79
2021/07/09 05:18:21;;;;;;;;;;;28.50;99.90;;;;;;1772793;80;20211;-80
2021/07/09 05:20:52;;;;;;;;;;;28.70;99.90;;;;;;1776809;80;20225;-78
2021/07/09 05:23:21;;;;;;;;;;;28.90;99.90;;;;;;1771469;80;20215;-79
2021/07/09 05:25:51;;;;;;;;;;;29.10;99.90;;;;;;1778937;80;20172;-78
2021/07/09 05:28:21;;;;;;;;;;;29.30;99.90;;;;;;1807190;78;20224;-79
2021/07/09 05:30:51;;;;;;;;;;;29.50;99.30;;;;;;1800031;78;20248;-79
2021/07/09 05:33:21;;;;;;;;;;;29.60;97.00;;;;;;1801653;79;20203;-79
2021/07/09 05:35:50;;;;;;;;;;;29.80;98.00;;;;;;1801531;79;20223;-80
2021/07/09 05:38:20;;;;;;;;;;;29.90;96.40;;;;;;1801347;79;20164;-79
2021/07/09 05:40:50;;;;;;;;;;;30.10;97.00;;;;;;1806264;79;20367;-79
2021/07/09 05:43:21;;;;;;;;;;;30.30;97.90;;;;;;1799414;78;20207;-79
2021/07/09 05:45:54;;;;;;;;;;;30.40;97.10;;;;;;1797702;79;20258;-79
2021/07/09 05:48:27;;;;;;;;;;;30.60;96.50;;;;;;1811479;76;20204;-79
2021/07/09 05:50:57;;;;;;;;;;;30.70;96.00;;;;;;1823744;77;20166;-79
2021/07/09 05:53:27;;;;;;;;;;;30.80;93.60;;;;;;1835232;78;20178;-79
2021/07/09 05:55:56;;;;;;;;;;;30.80;93.50;;;;;;1831168;77;20468;-80
2021/07/09 05:58:26;;;;;;;;;;;30.90;93.80;;;;;;1829181;77;20178;-80
2021/07/09 06:00:55;;;;;;;;;;;30.90;93.90;;;;;;1819499;78;20206;-80
2021/07/09 06:03:26;;;;;;;;;;;30.80;93.50;;;;;;1824868;78;20135;-81
2021/07/09 06:05:55;;;;;;;;;;;30.80;93.50;;;;;;1829000;78;20171;-79
2021/07/09 06:08:29;;;;;;;;;;;30.90;93.90;;;;;;1820255;78;20457;-79
2021/07/09 06:10:58;;;;;;;;;;;30.90;93.30;;;;;;1831388;78;20134;-80
2021/07/09 06:13:28;;;;;;;;;;;30.80;93.70;;;;;;1831135;78;20197;-79
2021/07/09 06:15:58;;;;;;;;;;;30.70;94.40;;;;;;1833453;78;20239;-79
2021/07/09 06:18:27;;;;;;;;;;;30.60;93.70;;;;;;1833406;78;20166;-80
2021/07/09 06:20:59;;;;;;;;;;;30.50;93.70;;;;;;1823857;78;20614;-79
2021/07/09 06:23:28;;;;;;;;;;;30.30;94.50;;;;;;1810766;78;20165;-79
2021/07/09 06:25:59;;;;;;;;;;;30.20;94.70;;;;;;1821075;78;20161;-79
2021/07/09 06:28:28;;;;;;;;;;;30.20;94.70;;;;;;1825143;77;20243;-79
2021/07/09 06:30:58;;;;;;;;;;;30.20;94.30;;;;;;1819538;78;20193;-78
2021/07/09 06:33:29;;;;;;;;;;;30.30;94.50;;;;;;1810679;78;20247;-80
2021/07/09 06:35:59;;;;;;;;;;;30.30;94.40;;;;;;1820004;77;20479;-79
2021/07/09 06:38:28;;;;;;;;;;;30.50;93.50;;;;;;1818688;78;20585;-79
2021/07/09 06:40:59;;;;;;;;;;;30.50;93.90;;;;;;1824276;78;20255;-81
2021/07/09 06:43:29;;;;;;;;;;;30.50;93.20;;;;;;1816871;77;20586;-80
2021/07/09 06:45:58;;;;;;;;;;;30.50;93.30;;;;;;1825684;77;20581;-79
2021/07/09 06:48:31;;;;;;;;;;;30.50;93.20;;;;;;1827913;77;20182;-78
2021/07/09 06:51:01;;;;;;;;;;;30.50;92.90;;;;;;1838994;77;20604;-78
2021/07/09 06:53:30;;;;;;;;;;;30.60;93.10;;;;;;1838068;78;20169;-80
2021/07/09 06:56:00;;;;;;;;;;;30.70;92.70;;;;;;1839822;78;20162;-78
2021/07/09 06:58:30;;;;;;;;;;;30.80;91.80;;;;;;1838205;78;20205;-79
2021/07/09 07:00:59;;;;;;;;;;;30.90;91.30;;;;;;1831462;77;20199;-80
2021/07/09 07:03:29;;;;;;;;;;;31.00;91.40;;;;;;1838677;78;20194;-78
2021/07/09 07:05:59;;;;;;;;;;;31.10;91.00;;;;;;1833570;78;20173;-80
2021/07/09 07:08:33;;;;;;;;;;;31.10;90.40;;;;;;1827120;78;20222;-80
2021/07/09 07:11:03;;;;;;;;;;;31.20;90.60;;;;;;1838322;76;20199;-81
2021/07/09 07:13:33;;;;;;;;;;;31.30;90.10;;;;;;1823492;78;20197;-80
2021/07/09 07:16:05;;;;;;;;;;;31.20;89.80;;;;;;1829803;77;20436;-80
2021/07/09 07:18:35;;;;;;;;;;;31.30;88.90;;;;;;1826173;77;20220;-79
2021/07/09 07:21:05;;;;;;;;;;;31.30;89.40;;;;;;1832623;77;20181;-79
2021/07/09 07:23:34;;;;;;;;;;;31.30;89.00;;;;;;1832367;78;20598;-79
2021/07/09 07:26:05;;;;;;;;;;;31.30;87.20;;;;;;1832627;78;20136;-78
2021/07/09 07:28:35;;;;;;;;;;;31.40;89.50;;;;;;1828310;77;20575;-78
2021/07/09 07:31:06;;;;;;;;;;;31.40;89.20;;;;;;1826316;78;20122;-77
2021/07/09 07:33:36;;;;;;;;;;;31.40;88.50;;;;;;1835286;77;20244;-79
2021/07/09 07:36:07;;;;;;;;;;;31.50;87.90;;;;;;1829406;78;20154;-79
2021/07/09 07:38:38;;;;;;;;;;;31.50;88.10;;;;;;1828530;77;20249;-79
2021/07/09 07:41:11;;;;;;;;;;;31.50;88.60;;;;;;1836046;78;20205;-79
2021/07/09 07:43:45;;;;;;;;;;;31.50;89.60;;;;;;1830619;78;20495;-78
2021/07/09 07:46:14;;;;;;;;;;;31.40;89.80;;;;;;1832836;78;20288;-79
2021/07/09 07:48:44;;;;;;;;;;;31.40;89.30;;;;;;1829903;78;20391;-79
2021/07/09 07:51:14;;;;;;;;;;;31.40;88.00;;;;;;1828538;78;20136;-78
2021/07/09 07:53:44;;;;;;;;;;;31.50;88.50;;;;;;1827129;78;20289;-79
2021/07/09 07:56:18;;;;;;;;;;;31.50;90.50;;;;;;1825839;78;20430;-78
2021/07/09 07:58:51;;;;;;;;;;;31.40;87.30;;;;;;1826065;78;20209;-79
2021/07/09 08:01:29;;;;;;;;;;;31.40;87.90;;;;;;1828147;77;20446;-78
2021/07/09 08:03:55;;;;;;;;;;;31.30;86.70;;;;;;1820764;78;20447;-79
2021/07/09 08:06:25;;;;;;;;;;;31.30;87.20;;;;;;1820450;78;20139;-79
2021/07/09 08:08:56;;;;;;;;;;;31.30;87.80;;;;;;1822265;78;20160;-79
2021/07/09 08:11:29;;;;;;;;;;;31.20;88.50;;;;;;1796510;79;20244;-80
2021/07/09 08:14:18;;;;;;;;;;;31.20;89.10;;;;;;1789005;80;20186;-78
2021/07/09 08:16:37;;;;;;;;;;;31.10;89.10;;;;;;1789113;79;20449;-78
2021/07/09 08:19:32;;;;;;;;;;;31.10;88.30;;;;;;1762899;81;20239;-78
2021/07/09 08:22:11;;;;;;;;;;;31.00;89.70;;;;;;1767357;81;20172;-78
2021/07/09 08:24:53;;;;;;;;;;;30.90;89.30;;;;;;1787574;80;20190;-78
2021/07/09 08:27:23;;;;;;;;;;;30.90;88.90;;;;;;1787415;80;20260;-78
2021/07/09 08:29:55;;;;;;;;;;;30.80;88.20;;;;;;1789207;79;20265;-78
2021/07/09 08:32:33;;;;;;;;;;;30.80;91.50;;;;;;1789792;79;20244;-80
2021/07/09 08:35:19;;;;;;;;;;;30.60;92.70;;;;;;1768921;81;20145;-77
2021/07/09 08:37:43;;;;;;;;;;;30.30;93.90;;;;;;1790761;80;20170;-79
2021/07/09 08:40:14;;;;;;;;;;;29.90;95.50;;;;;;1794979;78;20477;-77
2021/07/09 08:42:53;;;;;;;;;;;29.60;96.10;;;;;;1801028;78;20516;-78
2021/07/09 08:45:26;;;;;;;;;;;29.20;96.80;;;;;;1774778;79;20261;-77
2021/07/09 08:48:04;;;;;;;;;;;28.80;97.00;;;;;;1792626;80;20221;-78
2021/07/09 08:50:36;;;;;;;;;;;28.50;96.80;;;;;;1788741;80;20135;-78
2021/07/09 08:53:08;;;;;;;;;;;28.30;98.00;;;;;;1790026;79;20170;-77
2021/07/09 08:55:59;;;;;;;;;;;28.10;97.40;;;;;;1789956;79;20266;-78
2021/07/09 08:58:24;;;;;;;;;;;27.90;98.10;;;;;;1825700;77;20225;-78
2021/07/09 09:01:07;;;;;;;;;;;;;;;;;;;;;
2021/07/09 09:03:44;;;;;;;;;;;27.80;99.90;;;;;;1817329;77;20192;-77
2021/07/09 09:06:15;;;;;;;;;;;27.70;99.90;;;;;;1836295;78;20189;-78
2021/07/09 09:08:45;;;;;;;;;;;27.60;99.00;;;;;;1830034;78;20115;-77
2021/07/09 09:11:18;;;;;;;;;;;27.60;99.90;;;;;;1831392;77;20153;-78
2021/07/09 09:13:47;;;;;;;;;;;27.50;99.90;;;;;;1833032;77;20228;-76
2021/07/09 09:16:17;;;;;;;;;;;27.40;99.90;;;;;;1839257;77;20175;-77
2021/07/09 09:18:49;;;;;;;;;;;27.20;99.90;;;;;;1831105;78;20224;-78
2021/07/09 09:21:19;;;;;;;;;;;27.10;99.90;;;;;;1828969;78;20169;-79
2021/07/09 09:23:51;;;;;;;;;;;27.00;99.90;;;;;;1804944;78;20381;-79
2021/07/09 09:26:23;;;;;;;;;;;26.80;99.90;;;;;;1791935;79;20175;-78
2021/07/09 09:28:53;;;;;;;;;;;26.70;99.90;;;;;;1799997;78;20223;-78
2021/07/09 09:31:24;;;;;;;;;;;26.60;99.90;;;;;;1799275;80;20257;-78
2021/07/09 09:33:55;;;;;;;;;;;26.50;99.90;;;;;;1793286;80;20182;-78
2021/07/09 09:36:28;;;;;;;;;;;26.40;99.90;;;;;;1790425;80;20281;-78
2021/07/09 09:39:02;;;;;;;;;;;26.40;99.90;;;;;;1790856;80;20224;-78
2021/07/09 09:41:30;;;;;;;;;;;26.40;99.90;;;;;;1784851;80;20276;-78
2021/07/09 09:44:02;;;;;;;;;;;26.40;99.90;;;;;;1785580;80;20179;-78
2021/07/09 09:49:31;;;;;;;;;;;26.40;99.90;;;;;;1758751;81;20253;-78
2021/07/09 09:52:07;;;;;;;;;;;26.40;99.90;;;;;;1765355;80;20244;-77
2021/07/09 09:54:58;;;;;;;;;;;26.50;99.90;;;;;;1807304;79;20238;-78
2021/07/09 09:57:28;;;;;;;;;;;26.50;99.90;;;;;;1806548;79;20231;-79
2021/07/09 09:59:58;;;;;;;;;;;26.50;99.90;;;;;;1806181;79;20225;-78
2021/07/09 10:02:28;;;;;;;;;;;26.60;99.90;;;;;;1805019;79;20570;-78
2021/07/09 10:04:59;;;;;;;;;;;26.70;99.90;;;;;;1799990;79;20495;-78
2021/07/09 10:07:47;;;;;;;;;;;26.90;99.90;;;;;;1782063;79;20486;-80
2021/07/09 10:10:17;;;;;;;;;;;27.00;99.90;;;;;;1805021;79;20254;-79
2021/07/09 10:12:49;;;;;;;;;;;27.00;99.90;;;;;;1805169;79;20221;-78
2021/07/09 10:15:19;;;;;;;;;;;27.10;99.90;;;;;;1807733;78;20338;-78
2021/07/09 10:17:52;;;;;;;;;;;27.10;99.90;;;;;;1805148;79;20549;-77
2021/07/09 10:20:22;;;;;;;;;;;27.20;99.90;;;;;;1807576;79;20243;-78
2021/07/09 10:22:57;;;;;;;;;;;27.30;99.90;;;;;;1805066;79;20235;-78
2021/07/09 10:25:27;;;;;;;;;;;27.40;99.90;;;;;;1809011;79;20400;-78
2021/07/09 10:27:57;;;;;;;;;;;27.40;99.90;;;;;;1853112;77;20207;-78
2021/07/09 10:30:29;;;;;;;;;;;27.40;99.90;;;;;;1810555;78;20249;-78
2021/07/09 10:32:59;;;;;;;;;;;27.40;99.90;;;;;;1799870;79;20217;-78
2021/07/09 10:35:30;;;;;;;;;;;27.50;99.90;;;;;;1804243;79;20450;-78
2021/07/09 10:38:02;;;;;;;;;;;27.50;99.90;;;;;;1804336;79;20256;-79
2021/07/09 10:40:32;;;;;;;;;;;27.50;99.90;;;;;;1799137;79;20195;-78
2021/07/09 10:43:02;;;;;;;;;;;27.50;99.90;;;;;;1801799;79;20486;-82
2021/07/09 10:45:32;;;;;;;;;;;27.40;99.90;;;;;;1809085;79;20484;-79
2021/07/09 10:48:03;;;;;;;;;;;27.40;99.90;;;;;;1801570;78;20211;-80
2021/07/09 10:50:35;;;;;;;;;;;27.30;99.90;;;;;;1797653;79;20526;-79
2021/07/09 10:56:00;;;;;;;;;;;27.20;99.90;;;;;;1766480;80;20188;-78
2021/07/09 10:58:33;;;;;;;;;;;27.20;99.90;;;;;;1769291;80;20250;-81
2021/07/09 11:01:04;;;;;;;;;;;27.30;99.90;;;;;;1763786;79;20200;-78
2021/07/09 11:03:37;;;;;;;;;;;27.30;99.90;;;;;;1763734;79;20179;-78
2021/07/09 11:06:07;;;;;;;;;;;27.30;99.90;;;;;;1776718;80;20272;-77
2021/07/09 11:08:39;;;;;;;;;;;27.40;99.90;;;;;;1767886;80;20207;-78
2021/07/09 11:11:12;;;;;;;;;;;27.40;99.90;;;;;;1772541;80;20167;-80
2021/07/09 11:13:44;;;;;;;;;;;27.40;99.90;;;;;;1761996;80;20480;-79
2021/07/09 11:16:15;;;;;;;;;;;27.40;99.90;;;;;;1759287;80;20193;-78
2021/07/09 11:18:49;;;;;;;;;;;27.40;99.90;;;;;;1752404;80;20227;-78
2021/07/09 11:21:19;;;;;;;;;;;27.40;99.90;;;;;;1768653;81;20250;-77
2021/07/09 11:23:50;;;;;;;;;;;27.40;99.90;;;;;;1764056;80;20287;-77
2021/07/09 11:26:20;;;;;;;;;;;27.40;99.90;;;;;;1765463;80;20307;-77
2021/07/09 11:28:52;;;;;;;;;;;27.40;99.90;;;;;;1773429;80;20435;-79
2021/07/09 11:31:27;;;;;;;;;;;27.30;99.90;;;;;;1722693;82;20183;-77
2021/07/09 11:33:57;;;;;;;;;;;27.30;99.90;;;;;;1736673;82;20169;-77
2021/07/09 11:36:30;;;;;;;;;;;27.30;99.90;;;;;;1765826;80;20214;-77
2021/07/09 11:39:01;;;;;;;;;;;27.30;99.90;;;;;;1765315;81;20231;-79
2021/07/09 11:41:31;;;;;;;;;;;27.30;99.90;;;;;;1752318;81;20254;-78
2021/07/09 11:44:01;;;;;;;;;;;27.30;99.90;;;;;;1755343;81;20241;-78
2021/07/09 11:46:30;;;;;;;;;;;27.30;99.90;;;;;;1757302;81;20248;-77
2021/07/09 11:49:01;;;;;;;;;;;27.30;99.90;;;;;;1760385;81;20197;-77
2021/07/09 11:51:31;;;;;;;;;;;27.30;99.90;;;;;;1762332;81;20443;-79
2021/07/09 11:54:02;;;;;;;;;;;27.30;99.90;;;;;;1760628;81;20152;-77
2021/07/09 11:56:33;;;;;;;;;;;27.30;99.90;;;;;;1777564;80;20179;-78
2021/07/09 11:59:04;;;;;;;;;;;27.30;99.90;;;;;;1766182;80;20165;-80
2021/07/09 12:01:33;;;;;;;;;;;27.30;99.90;;;;;;1802126;79;20494;-80
2021/07/09 12:04:03;;;;;;;;;;;27.30;99.90;;;;;;1805876;78;20269;-93
2021/07/09 12:06:33;;;;;;;;;;;27.20;99.90;;;;;;1804695;78;20259;-91
2021/07/09 12:09:05;;;;;;;;;;;27.20;99.90;;;;;;1757802;80;20230;-93
2021/07/09 12:11:36;;;;;;;;;;;27.20;99.90;;;;;;1782831;79;20178;-89
2021/07/09 12:14:06;;;;;;;;;;;27.20;99.90;;;;;;1760406;80;20175;-94
2021/07/09 12:16:36;;;;;;;;;;;27.20;99.90;;;;;;1774745;80;20222;-92
2021/07/09 12:19:09;;;;;;;;;;;27.20;99.90;;;;;;1797345;78;20752;-89
2021/07/09 12:21:40;;;;;;;;;;;27.20;99.90;;;;;;1791436;78;20225;-91
2021/07/09 12:24:09;;;;;;;;;;;27.20;99.90;;;;;;1743821;81;20581;-94
2021/07/09 12:26:42;;;;;;;;;;;27.20;99.90;;;;;;1743561;81;20158;-93
2021/07/09 12:29:12;;;;;;;;;;;27.20;99.90;;;;;;1755080;80;20323;-95
2021/07/09 12:31:44;;;;;;;;;;;27.20;99.90;;;;;;1742528;80;20206;-93
2021/07/09 12:34:15;;;;;;;;;;;27.20;99.90;;;;;;1739273;81;20225;-92
2021/07/09 12:36:45;;;;;;;;;;;27.20;99.90;;;;;;1737029;81;20243;-94
2021/07/09 12:39:15;;;;;;;;;;;27.30;99.90;;;;;;1776843;80;20227;-92
2021/07/09 12:41:47;;;;;;;;;;;27.20;99.90;;;;;;1745485;82;20264;-91
2021/07/09 12:44:18;;;;;;;;;;;27.30;99.90;;;;;;1773798;79;20219;-92
2021/07/09 12:46:51;;;;;;;;;;;27.30;99.90;;;;;;1772027;80;20497;-91
2021/07/09 12:49:22;;;;;;;;;;;27.20;99.90;;;;;;1773411;80;20244;-92
2021/07/09 12:51:52;;;;;;;;;;;27.20;99.90;;;;;;1747128;81;20235;-91
2021/07/09 12:54:23;;;;;;;;;;;27.30;99.90;;;;;;1763263;80;20216;-93
2021/07/09 12:56:54;;;;;;;;;;;27.20;99.90;;;;;;1760609;80;20184;-93
2021/07/09 12:59:25;;;;;;;;;;;27.20;99.90;;;;;;1775554;80;20176;-93
2021/07/09 13:01:56;;;;;;;;;;;27.20;99.90;;;;;;1769810;80;20274;-93
2021/07/09 13:04:27;;;;;;;;;;;27.30;99.90;;;;;;1761861;80;20401;-92
2021/07/09 13:06:58;;;;;;;;;;;27.20;99.90;;;;;;1776776;80;20260;-94
2021/07/09 13:09:29;;;;;;;;;;;27.20;99.90;;;;;;1755054;80;20243;-91
2021/07/09 13:12:00;;;;;;;;;;;27.20;99.90;;;;;;1775636;80;20204;-93
2021/07/09 13:14:30;;;;;;;;;;;27.20;99.90;;;;;;1810482;78;20185;-93
2021/07/09 13:17:00;;;;;;;;;;;27.20;99.90;;;;;;1819709;78;20173;-93
2021/07/09 13:19:31;;;;;;;;;;;27.10;99.90;;;;;;1767210;81;20531;-92
2021/07/09 13:22:02;;;;;;;;;;;27.10;99.90;;;;;;1796207;79;20228;-92
2021/07/09 13:24:34;;;;;;;;;;;27.10;99.90;;;;;;1809660;78;20665;-92
2021/07/09 13:27:05;;;;;;;;;;;27.10;99.90;;;;;;1767205;80;20179;-91
2021/07/09 13:29:36;;;;;;;;;;;27.10;99.90;;;;;;1768770;80;20260;-93
2021/07/09 13:32:06;;;;;;;;;;;27.10;99.90;;;;;;1768149;80;20225;-93
2021/07/09 13:34:35;;;;;;;;;;;27.00;99.90;;;;;;1786112;80;20136;-91
2021/07/09 13:37:08;;;;;;;;;;;26.90;99.90;;;;;;1770613;80;20172;-92
2021/07/09 13:39:37;;;;;;;;;;;26.70;99.90;;;;;;1811597;78;20134;-92
2021/07/09 13:42:07;;;;;;;;;;;26.50;99.90;;;;;;1773711;80;20216;-91
2021/07/09 13:44:36;;;;;;;;;;;26.30;99.90;;;;;;1776143;80;20240;-92
2021/07/09 13:47:06;;;;;;;;;;;26.20;99.90;;;;;;1782334;80;20343;-90
2021/07/09 13:49:36;;;;;;;;;;;26.10;99.90;;;;;;1798365;79;20640;-90
2021/07/09 13:52:05;;;;;;;;;;;26.10;99.90;;;;;;1791383;79;20207;-90
2021/07/09 13:54:35;;;;;;;;;;;26.00;99.90;;;;;;1795032;79;20407;-90
2021/07/09 13:57:05;;;;;;;;;;;25.90;99.90;;;;;;1797404;79;20485;-91
2021/07/09 13:59:34;;;;;;;;;;;25.80;99.90;;;;;;1795931;80;20257;-91
2021/07/09 14:02:04;;;;;;;;;;;25.80;99.90;;;;;;1795953;79;20221;-92
2021/07/09 14:04:36;;;;;;;;;;;25.70;99.90;;;;;;1790225;79;20172;-89
2021/07/09 14:07:06;;;;;;;;;;;25.60;99.90;;;;;;1792388;79;20517;-91
2021/07/09 14:09:37;;;;;;;;;;;25.60;99.90;;;;;;1768030;80;20209;-92
2021/07/09 14:12:08;;;;;;;;;;;25.50;99.90;;;;;;1769501;80;20241;-90
2021/07/09 14:14:39;;;;;;;;;;;25.50;99.90;;;;;;1802021;78;20174;-91
2021/07/09 14:17:09;;;;;;;;;;;25.40;99.90;;;;;;1808825;78;20222;-92
2021/07/09 14:19:38;;;;;;;;;;;25.30;99.90;;;;;;1797332;80;20199;-91
2021/07/09 14:22:08;;;;;;;;;;;25.30;99.90;;;;;;1759666;81;20230;-90
2021/07/09 14:24:39;;;;;;;;;;;25.30;99.90;;;;;;1771281;80;20211;-91
2021/07/09 14:27:09;;;;;;;;;;;25.30;99.90;;;;;;1804152;79;20250;-91
2021/07/09 14:29:39;;;;;;;;;;;25.30;99.90;;;;;;1768832;80;20227;-89
2021/07/09 14:32:09;;;;;;;;;;;25.30;99.90;;;;;;1768464;80;20165;-91
2021/07/09 14:34:38;;;;;;;;;;;25.30;99.90;;;;;;1786416;79;20203;-90
2021/07/09 14:37:16;;;;;;;;;;;25.30;99.90;;;;;;1771937;80;20555;-91
2021/07/09 14:39:47;;;;;;;;;;;25.40;99.90;;;;;;1770702;80;20137;-91
2021/07/09 14:42:17;;;;;;;;;;;25.40;99.90;;;;;;1797326;78;20209;-92
2021/07/09 14:44:54;;;;;;;;;;;25.40;99.90;;;;;;1756247;80;20528;-90
2021/07/09 14:47:23;;;;;;;;;;;25.50;99.90;;;;;;1769026;80;20218;-91